createdAt,value
2017-08-04T00:00:39.468Z,99.99
2017-08-04T00:01:39.164Z,99.99
2017-08-04T00:02:39.464Z,99.99
2017-08-04T00:03:39.462Z,99.99
2017-08-04T00:04:39.142Z,99.99
2017-08-04T00:05:39.470Z,99.99
2017-08-04T00:06:39.145Z,99.99
2017-08-04T00:07:39.481Z,99.99
2017-08-04T00:08:39.455Z,99.99
2017-08-04T00:09:39.132Z,99.99
2017-08-04T00:10:39.452Z,99.99
2017-08-04T00:11:39.449Z,99.99
2017-08-04T00:12:39.471Z,99.99
2017-08-04T00:13:39.446Z,99.99
2017-08-04T00:14:39.120Z,99.99
2017-08-04T00:15:39.444Z,99.99
2017-08-04T00:16:39.453Z,99.99
2017-08-04T00:17:39.457Z,99.99
2017-08-04T00:18:39.455Z,99.99
2017-08-04T00:19:39.117Z,99.99
2017-08-04T00:20:39.112Z,99.99
2017-08-04T00:21:39.432Z,99.99
2017-08-04T00:22:39.432Z,99.99
2017-08-04T00:23:39.431Z,99.99
2017-08-04T00:24:39.439Z,99.99
2017-08-04T00:25:39.103Z,99.99
2017-08-04T00:26:39.423Z,99.99
2017-08-04T00:27:39.418Z,99.99
2017-08-04T00:28:39.420Z,99.99
2017-08-04T00:29:39.419Z,99.99
2017-08-04T00:30:39.413Z,99.99
2017-08-04T00:31:39.092Z,99.99
2017-08-04T00:32:39.406Z,99.99
2017-08-04T00:33:39.413Z,99.99
2017-08-04T00:34:39.087Z,99.99
2017-08-04T00:35:39.409Z,99.99
2017-08-04T00:36:39.420Z,99.99
2017-08-04T00:37:39.446Z,99.99
2017-08-04T00:38:39.398Z,99.99
2017-08-04T00:39:39.403Z,99.99
2017-08-04T00:40:39.413Z,99.99
2017-08-04T00:41:39.391Z,99.99
2017-08-04T00:42:39.408Z,99.99
2017-08-04T00:43:39.388Z,99.99
2017-08-04T00:44:39.389Z,99.99
2017-08-04T00:45:39.389Z,99.99
2017-08-04T00:46:39.063Z,99.99
2017-08-04T00:47:39.379Z,99.99
2017-08-04T00:48:39.377Z,99.99
2017-08-04T00:49:39.054Z,99.99
2017-08-04T00:50:39.381Z,99.99
2017-08-04T00:51:39.371Z,99.99
2017-08-04T00:52:39.368Z,99.99
2017-08-04T00:53:39.375Z,99.99
2017-08-04T00:54:39.044Z,99.99
2017-08-04T00:55:39.364Z,99.99
2017-08-04T00:56:39.359Z,99.99
2017-08-04T00:57:39.359Z,99.99
2017-08-04T00:58:39.360Z,99.99
2017-08-04T00:59:39.042Z,99.99
2017-08-04T01:00:39.356Z,99.99
2017-08-04T01:01:39.032Z,99.99
2017-08-04T01:02:39.356Z,99.99
2017-08-04T01:03:39.027Z,99.99
2017-08-04T01:04:39.025Z,99.99
2017-08-04T01:05:39.361Z,99.99
2017-08-04T01:06:39.339Z,99.99
2017-08-04T01:07:39.341Z,99.99
2017-08-04T01:08:39.338Z,99.99
2017-08-04T01:09:39.014Z,99.99
2017-08-04T01:10:39.333Z,99.99
2017-08-04T01:11:39.351Z,99.99
2017-08-04T01:12:39.330Z,99.99
2017-08-04T01:13:39.027Z,99.99
2017-08-04T01:14:39.323Z,99.99
2017-08-04T01:15:39.337Z,99.99
2017-08-04T01:16:39.321Z,99.99
2017-08-04T01:17:39.317Z,99.99
2017-08-04T01:18:39.314Z,99.99
2017-08-04T01:19:39.313Z,99.99
2017-08-04T01:20:39.314Z,99.99
2017-08-04T01:21:39.309Z,99.99
2017-08-04T01:22:39.305Z,99.99
2017-08-04T01:23:39.307Z,99.99
2017-08-04T01:24:39.308Z,99.99
2017-08-04T01:25:39.308Z,99.99
2017-08-04T01:26:39.313Z,99.99
2017-08-04T01:27:39.298Z,99.99
2017-08-04T01:28:38.975Z,99.99
2017-08-04T01:29:38.981Z,99.99
2017-08-04T01:30:39.305Z,99.99
2017-08-04T01:31:39.288Z,99.99
2017-08-04T01:32:39.300Z,99.99
2017-08-04T01:33:38.962Z,99.99
2017-08-04T01:34:39.283Z,99.99
2017-08-04T01:35:39.289Z,99.99
2017-08-04T01:36:39.280Z,99.99
2017-08-04T01:37:39.280Z,99.99
2017-08-04T01:38:39.290Z,99.99
2017-08-04T01:39:39.278Z,99.99
2017-08-04T01:40:39.268Z,99.99
2017-08-04T01:41:39.302Z,99.99
2017-08-04T01:42:39.265Z,99.99
2017-08-04T01:43:39.263Z,99.99
2017-08-04T01:44:38.948Z,99.99
2017-08-04T01:45:39.257Z,99.99
2017-08-04T01:46:39.283Z,99.99
2017-08-04T01:47:39.254Z,99.99
2017-08-04T01:48:39.263Z,99.99
2017-08-04T01:49:39.248Z,99.99
2017-08-04T01:50:39.267Z,99.99
2017-08-04T01:51:39.266Z,99.99
2017-08-04T01:52:38.924Z,99.99
2017-08-04T01:53:39.243Z,99.99
2017-08-04T01:54:38.918Z,99.99
2017-08-04T01:55:39.240Z,99.99
2017-08-04T01:56:39.234Z,99.99
2017-08-04T01:57:38.916Z,99.99
2017-08-04T01:58:38.913Z,99.99
2017-08-04T01:59:38.910Z,99.99
2017-08-04T02:00:38.905Z,99.99
2017-08-04T02:01:39.224Z,99.99
2017-08-04T02:02:39.232Z,99.99
2017-08-04T02:03:39.222Z,99.99
2017-08-04T02:04:39.238Z,99.99
2017-08-04T02:05:39.242Z,99.99
2017-08-04T02:06:39.218Z,99.99
2017-08-04T02:07:39.218Z,99.99
2017-08-04T02:08:39.211Z,99.99
2017-08-04T02:09:39.208Z,99.99
2017-08-04T02:10:39.211Z,99.99
2017-08-04T02:11:38.884Z,99.99
2017-08-04T02:12:39.224Z,99.99
2017-08-04T02:13:39.199Z,99.99
2017-08-04T02:14:38.878Z,99.99
2017-08-04T02:15:38.894Z,99.99
2017-08-04T02:16:39.194Z,99.99
2017-08-04T02:17:39.189Z,99.99
2017-08-04T02:18:39.209Z,99.99
2017-08-04T02:19:39.186Z,99.99
2017-08-04T02:20:38.861Z,99.99
2017-08-04T02:21:39.183Z,99.99
2017-08-04T02:22:38.873Z,99.99
2017-08-04T02:23:38.860Z,99.99
2017-08-04T02:24:39.172Z,99.99
2017-08-04T02:25:39.174Z,99.99
2017-08-04T02:26:38.858Z,99.99
2017-08-04T02:27:39.170Z,99.99
2017-08-04T02:28:39.166Z,99.99
2017-08-04T02:29:38.865Z,99.99
2017-08-04T02:30:39.167Z,99.99
2017-08-04T02:31:39.160Z,99.99
2017-08-04T02:32:39.174Z,99.99
2017-08-04T02:33:39.159Z,99.99
2017-08-04T02:34:39.155Z,99.99
2017-08-04T02:35:39.154Z,99.99
2017-08-04T02:36:39.152Z,99.99
2017-08-04T02:37:39.149Z,99.99
2017-08-04T02:38:39.152Z,99.99
2017-08-04T02:39:39.148Z,99.99
2017-08-04T02:40:39.144Z,99.99
2017-08-04T02:41:38.828Z,99.99
2017-08-04T02:42:38.818Z,99.99
2017-08-04T02:43:39.154Z,99.99
2017-08-04T02:44:39.133Z,99.99
2017-08-04T02:45:39.130Z,99.99
2017-08-04T02:46:38.811Z,99.99
2017-08-04T02:47:39.143Z,99.99
2017-08-04T02:48:39.124Z,99.99
2017-08-04T02:49:39.122Z,99.99
2017-08-04T02:50:39.121Z,99.99
2017-08-04T02:51:39.119Z,99.99
2017-08-04T02:52:38.821Z,99.99
2017-08-04T02:53:38.795Z,99.99
2017-08-04T02:54:39.116Z,99.99
2017-08-04T02:55:39.109Z,99.99
2017-08-04T02:56:38.788Z,99.99
2017-08-04T02:57:38.788Z,99.99
2017-08-04T02:58:39.111Z,99.99
2017-08-04T02:59:39.100Z,99.99
2017-08-04T03:00:39.117Z,99.99
2017-08-04T03:01:39.103Z,99.99
2017-08-04T03:02:39.095Z,99.99
2017-08-04T03:03:39.094Z,99.99
2017-08-04T03:04:39.087Z,99.99
2017-08-04T03:05:39.091Z,99.99
2017-08-04T03:06:38.771Z,99.99
2017-08-04T03:07:38.763Z,99.99
2017-08-04T03:08:39.083Z,99.99
2017-08-04T03:09:39.090Z,99.99
2017-08-04T03:10:39.083Z,99.99
2017-08-04T03:11:39.075Z,99.99
2017-08-04T03:12:39.072Z,99.99
2017-08-04T03:13:39.068Z,99.99
2017-08-04T03:14:38.746Z,99.99
2017-08-04T03:15:39.064Z,99.99
2017-08-04T03:16:39.070Z,99.99
2017-08-04T03:17:39.066Z,99.99
2017-08-04T03:18:38.754Z,99.99
2017-08-04T03:19:39.096Z,99.99
2017-08-04T03:20:39.054Z,99.99
2017-08-04T03:21:39.060Z,99.99
2017-08-04T03:22:39.051Z,99.99
2017-08-04T03:23:39.049Z,99.99
2017-08-04T03:24:39.048Z,99.99
2017-08-04T03:25:39.043Z,99.99
2017-08-04T03:26:39.041Z,99.99
2017-08-04T03:27:39.044Z,99.99
2017-08-04T03:28:38.729Z,99.99
2017-08-04T03:29:39.034Z,99.99
2017-08-04T03:30:39.035Z,99.99
2017-08-04T03:31:39.030Z,99.99
2017-08-04T03:32:39.043Z,99.99
2017-08-04T03:33:38.706Z,99.99
2017-08-04T03:34:39.039Z,99.99
2017-08-04T03:35:39.018Z,99.99
2017-08-04T03:36:39.021Z,99.99
2017-08-04T03:37:39.022Z,99.99
2017-08-04T03:38:39.017Z,99.99
2017-08-04T03:39:39.026Z,99.99
2017-08-04T03:40:39.034Z,99.99
2017-08-04T03:41:39.017Z,99.99
2017-08-04T03:42:39.023Z,99.99
2017-08-04T03:43:39.022Z,99.99
2017-08-04T03:44:38.682Z,99.99
2017-08-04T03:45:38.682Z,99.99
2017-08-04T03:46:39.012Z,99.99
2017-08-04T03:47:38.995Z,99.99
2017-08-04T03:48:38.998Z,99.99
2017-08-04T03:49:38.670Z,99.99
2017-08-04T03:50:38.990Z,99.99
2017-08-04T03:51:38.989Z,99.99
2017-08-04T03:52:38.985Z,99.99
2017-08-04T03:53:38.670Z,99.99
2017-08-04T03:54:38.660Z,99.99
2017-08-04T03:55:38.980Z,99.99
2017-08-04T03:56:38.995Z,99.99
2017-08-04T03:57:38.973Z,99.99
2017-08-04T03:58:38.982Z,99.99
2017-08-04T03:59:38.646Z,99.99
2017-08-04T04:00:38.965Z,99.99
2017-08-04T04:01:38.966Z,99.99
2017-08-04T04:02:38.962Z,99.99
2017-08-04T04:03:38.963Z,99.99
2017-08-04T04:04:38.640Z,99.99
2017-08-04T04:05:38.952Z,99.99
2017-08-04T04:06:38.950Z,99.99
2017-08-04T04:07:38.632Z,99.99
2017-08-04T04:08:38.943Z,99.99
2017-08-04T04:09:38.955Z,99.99
2017-08-04T04:10:38.942Z,99.99
2017-08-04T04:11:38.617Z,99.99
2017-08-04T04:12:38.619Z,99.99
2017-08-04T04:13:38.942Z,99.99
2017-08-04T04:14:38.614Z,99.99
2017-08-04T04:15:38.938Z,99.99
2017-08-04T04:16:38.944Z,99.99
2017-08-04T04:17:38.930Z,99.99
2017-08-04T04:18:38.935Z,99.99
2017-08-04T04:19:38.603Z,99.99
2017-08-04T04:20:38.936Z,99.99
2017-08-04T04:21:38.937Z,99.99
2017-08-04T04:22:38.917Z,99.99
2017-08-04T04:23:38.914Z,99.99
2017-08-04T04:24:38.912Z,99.99
2017-08-04T04:25:38.913Z,99.99
2017-08-04T04:26:38.584Z,99.99
2017-08-04T04:27:38.901Z,99.99
2017-08-04T04:28:38.908Z,99.99
2017-08-04T04:29:38.900Z,99.99
2017-08-04T04:30:38.576Z,99.99
2017-08-04T04:31:38.594Z,99.99
2017-08-04T04:32:38.895Z,99.99
2017-08-04T04:33:38.887Z,99.99
2017-08-04T04:34:38.566Z,99.44
2017-08-04T04:35:38.885Z,98.58
2017-08-04T04:36:38.571Z,98.29
2017-08-04T04:37:38.884Z,97.61
2017-08-04T04:38:38.884Z,97.71
2017-08-04T04:39:38.553Z,97.71
2017-08-04T04:40:38.873Z,96.94
2017-08-04T04:41:38.871Z,97.24
2017-08-04T04:42:38.882Z,97.04
2017-08-04T04:43:38.873Z,96.47
2017-08-04T04:44:38.876Z,95.79
2017-08-04T04:45:38.862Z,95.79
2017-08-04T04:46:38.862Z,95.31
2017-08-04T04:47:38.536Z,95.03
2017-08-04T04:48:38.864Z,95.12
2017-08-04T04:49:38.862Z,94.93
2017-08-04T04:50:38.874Z,95.12
2017-08-04T04:51:38.527Z,95.07
2017-08-04T04:52:38.868Z,94.83
2017-08-04T04:53:38.527Z,94.59
2017-08-04T04:54:38.846Z,94.45
2017-08-04T04:55:38.523Z,94.01
2017-08-04T04:56:38.529Z,94.07
2017-08-04T04:57:38.839Z,92.72
2017-08-04T04:58:38.515Z,92.57
2017-08-04T04:59:38.866Z,93.44
2017-08-04T05:00:38.830Z,92.77
2017-08-04T05:01:38.828Z,94.31
2017-08-04T05:02:38.843Z,93.15
2017-08-04T05:03:39.025Z,93.82
2017-08-04T05:04:38.824Z,94.69
2017-08-04T05:05:38.501Z,93.54
2017-08-04T05:06:38.825Z,92.57
2017-08-04T05:07:38.498Z,92.96
2017-08-04T05:08:38.496Z,92.86
2017-08-04T05:09:38.517Z,93.54
2017-08-04T05:10:38.492Z,93.25
2017-08-04T05:11:38.819Z,92.67
2017-08-04T05:12:38.807Z,92.86
2017-08-04T05:13:38.488Z,92.77
2017-08-04T05:14:38.803Z,92.57
2017-08-04T05:15:38.481Z,93.01
2017-08-04T05:16:38.823Z,92.43
2017-08-04T05:17:38.802Z,92.05
2017-08-04T05:18:38.476Z,92.24
2017-08-04T05:19:38.798Z,91.66
2017-08-04T05:20:38.515Z,91.18
2017-08-04T05:21:38.814Z,91.47
2017-08-04T05:22:38.492Z,90.8
2017-08-04T05:23:38.795Z,90.12
2017-08-04T05:24:38.469Z,91.18
2017-08-04T05:25:38.468Z,90.41
2017-08-04T05:26:38.463Z,90.12
2017-08-04T05:27:38.783Z,89.26
2017-08-04T05:28:38.783Z,88.78
2017-08-04T05:29:38.460Z,88.59
2017-08-04T05:30:38.780Z,89.74
2017-08-04T05:31:38.777Z,89.54
2017-08-04T05:32:38.455Z,89.98
2017-08-04T05:33:38.455Z,88.87
2017-08-04T05:34:38.454Z,88.34
2017-08-04T05:35:38.776Z,88.2
2017-08-04T05:36:38.794Z,88.24
2017-08-04T05:37:38.788Z,88.15
2017-08-04T05:38:38.447Z,88.34
2017-08-04T05:39:38.444Z,87.67
2017-08-04T05:40:38.445Z,86.99
2017-08-04T05:41:38.468Z,87.76
2017-08-04T05:42:38.761Z,86.42
2017-08-04T05:43:38.765Z,86.99
2017-08-04T05:44:38.444Z,85.94
2017-08-04T05:45:38.785Z,86.04
2017-08-04T05:46:38.762Z,86.13
2017-08-04T05:47:38.763Z,86.32
2017-08-04T05:48:38.755Z,86.04
2017-08-04T05:49:38.757Z,87.13
2017-08-04T05:50:38.751Z,87.81
2017-08-04T05:51:38.762Z,87.42
2017-08-04T05:52:38.754Z,86.18
2017-08-04T05:53:38.433Z,86.46
2017-08-04T05:54:38.751Z,86.56
2017-08-04T05:55:38.753Z,85.98
2017-08-04T05:56:38.428Z,85.69
2017-08-04T05:57:38.745Z,84.54
2017-08-04T05:58:38.744Z,84.67
2017-08-04T05:59:38.744Z,84.77
2017-08-04T06:00:38.449Z,84.67
2017-08-04T06:01:38.744Z,83.33
2017-08-04T06:02:38.750Z,83.04
2017-08-04T06:03:38.431Z,82.94
2017-08-04T06:04:38.420Z,82.75
2017-08-04T06:05:38.747Z,83.47
2017-08-04T06:06:38.742Z,81.73
2017-08-04T06:07:38.747Z,82.12
2017-08-04T06:08:38.764Z,82.31
2017-08-04T06:09:38.423Z,82.31
2017-08-04T06:10:38.417Z,82.5
2017-08-04T06:11:38.739Z,81.25
2017-08-04T06:12:38.743Z,81.54
2017-08-04T06:13:38.736Z,82.12
2017-08-04T06:14:38.416Z,82.12
2017-08-04T06:15:38.417Z,82.12
2017-08-04T06:16:38.417Z,80.87
2017-08-04T06:17:38.937Z,80.96
2017-08-04T06:18:38.736Z,80.48
2017-08-04T06:19:38.418Z,81.45
2017-08-04T06:20:38.733Z,80.68
2017-08-04T06:21:38.739Z,78.98
2017-08-04T06:22:38.743Z,79.75
2017-08-04T06:23:38.415Z,77.73
2017-08-04T06:24:38.733Z,78.4
2017-08-04T06:25:38.413Z,78.4
2017-08-04T06:26:38.736Z,77.44
2017-08-04T06:27:38.754Z,77.19
2017-08-04T06:28:38.736Z,77.38
2017-08-04T06:29:38.422Z,77.09
2017-08-04T06:30:38.738Z,77.09
2017-08-04T06:31:38.738Z,76.13
2017-08-04T06:32:38.739Z,76.07
2017-08-04T06:33:38.417Z,75.1
2017-08-04T06:34:38.738Z,74.52
2017-08-04T06:35:38.737Z,74.24
2017-08-04T06:36:38.736Z,73.02
2017-08-04T06:37:38.763Z,72.12
2017-08-04T06:38:38.740Z,72.83
2017-08-04T06:39:38.420Z,73.57
2017-08-04T06:40:38.740Z,73.47
2017-08-04T06:41:38.758Z,73.75
2017-08-04T06:42:38.762Z,72.6
2017-08-04T06:43:38.749Z,73.75
2017-08-04T06:44:38.424Z,73.85
2017-08-04T06:45:38.749Z,73.57
2017-08-04T06:46:38.427Z,73.37
2017-08-04T06:47:38.754Z,73.79
2017-08-04T06:48:38.429Z,73.5
2017-08-04T06:49:38.748Z,74.66
2017-08-04T06:50:38.755Z,74.18
2017-08-04T06:51:38.750Z,73.02
2017-08-04T06:52:38.431Z,72.83
2017-08-04T06:53:38.434Z,73.02
2017-08-04T06:54:38.431Z,71.12
2017-08-04T06:55:38.439Z,71.22
2017-08-04T06:56:38.755Z,71.42
2017-08-04T06:57:38.754Z,70.26
2017-08-04T06:58:38.457Z,68.17
2017-08-04T06:59:38.757Z,66.27
2017-08-04T07:00:38.763Z,63.98
2017-08-04T07:01:38.760Z,62.79
2017-08-04T07:02:38.764Z,59.88
2017-08-04T07:03:38.766Z,59.06
2017-08-04T07:04:38.767Z,55.43
2017-08-04T07:05:38.453Z,53.88
2017-08-04T07:06:38.455Z,55.36
2017-08-04T07:07:38.454Z,56.79
2017-08-04T07:08:38.798Z,57.15
2017-08-04T07:09:38.804Z,55.38
2017-08-04T07:10:38.793Z,56.32
2017-08-04T07:11:38.790Z,57.55
2017-08-04T07:12:38.793Z,58.59
2017-08-04T07:13:38.475Z,58.69
2017-08-04T07:14:38.808Z,59.75
2017-08-04T07:15:38.801Z,60.5
2017-08-04T07:16:38.817Z,59.75
2017-08-04T07:17:38.809Z,58.39
2017-08-04T07:18:38.812Z,57.36
2017-08-04T07:19:38.826Z,55.87
2017-08-04T07:20:38.816Z,50.68
2017-08-04T07:21:38.826Z,51.79
2017-08-04T07:22:38.823Z,50.09
2017-08-04T07:23:38.509Z,46.71
2017-08-04T07:24:38.831Z,44.81
2017-08-04T07:25:38.837Z,44.34
2017-08-04T07:26:38.842Z,44.07
2017-08-04T07:27:38.549Z,43.71
2017-08-04T07:28:38.853Z,43.53
2017-08-04T07:29:38.540Z,42.48
2017-08-04T07:30:38.868Z,42.6
2017-08-04T07:31:38.873Z,40.06
2017-08-04T07:32:38.566Z,40.06
2017-08-04T07:33:38.917Z,38.69
2017-08-04T07:34:38.572Z,38.49
2017-08-04T07:35:38.576Z,39.28
2017-08-04T07:36:38.904Z,40.43
2017-08-04T07:37:38.589Z,38.1
2017-08-04T07:38:38.920Z,38.89
2017-08-04T07:39:38.932Z,39.94
2017-08-04T07:40:38.933Z,40.94
2017-08-04T07:41:38.953Z,38.61
2017-08-04T07:42:38.949Z,36.67
2017-08-04T07:43:38.959Z,38.53
2017-08-04T07:44:38.981Z,36.69
2017-08-04T07:45:38.972Z,35.04
2017-08-04T07:46:38.991Z,34.26
2017-08-04T07:47:38.990Z,34.67
2017-08-04T07:48:38.999Z,32.79
2017-08-04T07:49:39.005Z,34.84
2017-08-04T07:50:38.711Z,33.69
2017-08-04T07:51:39.018Z,34.57
2017-08-04T07:52:39.040Z,32.7
2017-08-04T07:53:39.034Z,32.58
2017-08-04T07:54:38.721Z,36.69
2017-08-04T07:55:39.050Z,36.18
2017-08-04T07:56:38.736Z,34.31
2017-08-04T07:57:39.069Z,34.5
2017-08-04T07:58:39.070Z,34.8
2017-08-04T07:59:39.093Z,33.33
2017-08-04T08:00:39.102Z,32.73
2017-08-04T08:01:39.094Z,36.91
2017-08-04T08:02:39.111Z,39.41
2017-08-04T08:03:39.106Z,41.13
2017-08-04T08:04:38.816Z,42.18
2017-08-04T08:05:39.117Z,42.55
2017-08-04T08:06:39.122Z,43.58
2017-08-04T08:07:39.128Z,44.92
2017-08-04T08:08:39.136Z,46.72
2017-08-04T08:09:39.141Z,48.44
2017-08-04T08:10:39.164Z,50.16
2017-08-04T08:11:38.832Z,50.14
2017-08-04T08:12:39.158Z,50.89
2017-08-04T08:13:38.839Z,53.58
2017-08-04T08:14:39.168Z,53.39
2017-08-04T08:15:38.850Z,54.81
2017-08-04T08:16:39.175Z,55.88
2017-08-04T08:17:39.194Z,53.63
2017-08-04T08:18:39.190Z,53.91
2017-08-04T08:19:39.190Z,55.34
2017-08-04T08:20:39.195Z,57.08
2017-08-04T08:21:39.195Z,57.18
2017-08-04T08:22:39.213Z,58.5
2017-08-04T08:23:39.206Z,59.18
2017-08-04T08:24:38.889Z,61.4
2017-08-04T08:25:39.220Z,58.98
2017-08-04T08:26:39.224Z,59.18
2017-08-04T08:27:39.220Z,58.5
2017-08-04T08:28:39.225Z,58.7
2017-08-04T08:29:38.911Z,58.6
2017-08-04T08:30:38.916Z,59.18
2017-08-04T08:31:39.234Z,57.44
2017-08-04T08:32:38.933Z,58.7
2017-08-04T08:33:39.243Z,58.7
2017-08-04T08:34:39.247Z,58.6
2017-08-04T08:35:39.253Z,57.73
2017-08-04T08:36:39.252Z,61.02
2017-08-04T08:37:39.255Z,59.95
2017-08-04T08:38:38.935Z,58.6
2017-08-04T08:39:38.963Z,60.82
2017-08-04T08:40:39.265Z,59.38
2017-08-04T08:41:39.283Z,59.08
2017-08-04T08:42:39.271Z,59.08
2017-08-04T08:43:39.272Z,58.8
2017-08-04T08:44:39.277Z,59.25
2017-08-04T08:45:39.286Z,59.25
2017-08-04T08:46:38.960Z,60.18
2017-08-04T08:47:38.963Z,59.63
2017-08-04T08:48:39.302Z,58.98
2017-08-04T08:49:39.289Z,58.12
2017-08-04T08:50:38.972Z,59.56
2017-08-04T08:51:39.298Z,60.05
2017-08-04T08:52:39.300Z,58.44
2017-08-04T08:53:39.303Z,58.63
2017-08-04T08:54:39.304Z,59.69
2017-08-04T08:55:39.313Z,60.85
2017-08-04T08:56:39.310Z,58.44
2017-08-04T08:57:39.314Z,58.85
2017-08-04T08:58:39.328Z,58.37
2017-08-04T08:59:39.333Z,56.5
2017-08-04T09:00:39.323Z,58.92
2017-08-04T09:01:39.003Z,58.53
2017-08-04T09:02:39.337Z,58.44
2017-08-04T09:03:39.355Z,60.95
2017-08-04T09:04:39.334Z,60.63
2017-08-04T09:05:39.340Z,60.47
2017-08-04T09:06:39.337Z,61.33
2017-08-04T09:07:39.342Z,58.63
2017-08-04T09:08:39.345Z,59.4
2017-08-04T09:09:39.348Z,59.05
2017-08-04T09:10:39.351Z,63.69
2017-08-04T09:11:39.031Z,56.65
2017-08-04T09:12:39.034Z,57.14
2017-08-04T09:13:39.397Z,57.36
2017-08-04T09:14:39.371Z,56
2017-08-04T09:15:39.052Z,54.26
2017-08-04T09:16:39.369Z,55.68
2017-08-04T09:17:39.371Z,55.88
2017-08-04T09:18:39.376Z,55.46
2017-08-04T09:19:39.376Z,55.76
2017-08-04T09:20:39.388Z,58.37
2017-08-04T09:21:39.386Z,58.17
2017-08-04T09:22:39.389Z,58.63
2017-08-04T09:23:39.396Z,58.92
2017-08-04T09:24:39.397Z,59.98
2017-08-04T09:25:39.399Z,59.76
2017-08-04T09:26:39.400Z,60.34
2017-08-04T09:27:39.405Z,60.34
2017-08-04T09:28:39.085Z,60.17
2017-08-04T09:29:39.090Z,61.89
2017-08-04T09:30:39.412Z,62.11
2017-08-04T09:31:39.416Z,60.27
2017-08-04T09:32:39.429Z,60.88
2017-08-04T09:33:39.116Z,60.11
2017-08-04T09:34:39.428Z,59.17
2017-08-04T09:35:39.428Z,54.94
2017-08-04T09:36:39.114Z,55.62
2017-08-04T09:37:39.435Z,54.84
2017-08-04T09:38:39.439Z,54.55
2017-08-04T09:39:39.443Z,55.13
2017-08-04T09:40:39.448Z,56.59
2017-08-04T09:41:39.473Z,54.45
2017-08-04T09:42:39.131Z,56.68
2017-08-04T09:43:39.458Z,56.65
2017-08-04T09:44:39.461Z,56.85
2017-08-04T09:45:39.465Z,56.16
2017-08-04T09:46:39.469Z,55.66
2017-08-04T09:47:39.473Z,58.56
2017-08-04T09:48:39.477Z,58.65
2017-08-04T09:49:39.480Z,57.23
2017-08-04T09:50:39.483Z,56.75
2017-08-04T09:51:39.487Z,57.81
2017-08-04T09:52:39.169Z,56.16
2017-08-04T09:53:39.515Z,57.14
2017-08-04T09:54:39.497Z,55.98
2017-08-04T09:55:39.178Z,55.78
2017-08-04T09:56:39.504Z,56.36
2017-08-04T09:57:39.509Z,56.07
2017-08-04T09:58:39.512Z,55.71
2017-08-04T09:59:39.519Z,55.42
2017-08-04T10:00:39.197Z,57.36
2017-08-04T10:01:39.220Z,57
2017-08-04T10:02:39.525Z,55.64
2017-08-04T10:03:39.529Z,56.41
2017-08-04T10:04:39.535Z,54.77
2017-08-04T10:05:39.539Z,53.44
2017-08-04T10:06:39.220Z,54.9
2017-08-04T10:07:39.544Z,52.56
2017-08-04T10:08:39.241Z,51.59
2017-08-04T10:09:39.575Z,51.86
2017-08-04T10:10:39.557Z,54.9
2017-08-04T10:11:39.565Z,52.66
2017-08-04T10:12:39.571Z,53.83
2017-08-04T10:13:39.577Z,53.73
2017-08-04T10:14:39.583Z,56.45
2017-08-04T10:15:39.590Z,53.41
2017-08-04T10:16:39.597Z,54.09
2017-08-04T10:17:39.586Z,52.15
2017-08-04T10:18:39.596Z,51.31
2017-08-04T10:19:39.274Z,51.5
2017-08-04T10:20:39.604Z,49.85
2017-08-04T10:21:39.602Z,51.98
2017-08-04T10:22:39.285Z,53.44
2017-08-04T10:23:39.615Z,50.72
2017-08-04T10:24:39.614Z,53.05
2017-08-04T10:25:39.620Z,51.69
2017-08-04T10:26:39.313Z,50.72
2017-08-04T10:27:39.642Z,51.59
2017-08-04T10:28:39.631Z,53.92
2017-08-04T10:29:39.314Z,53.83
2017-08-04T10:30:39.668Z,55.47
2017-08-04T10:31:39.661Z,53.73
2017-08-04T10:32:39.649Z,48.97
2017-08-04T10:33:39.656Z,50.7
2017-08-04T10:34:39.657Z,51.47
2017-08-04T10:35:39.661Z,52.73
2017-08-04T10:36:39.684Z,53.02
2017-08-04T10:37:39.350Z,50.12
2017-08-04T10:38:39.676Z,50.31
2017-08-04T10:39:39.356Z,48.85
2017-08-04T10:40:39.683Z,50.41
2017-08-04T10:41:39.715Z,49.05
2017-08-04T10:42:39.694Z,50.21
2017-08-04T10:43:39.718Z,50.02
2017-08-04T10:44:39.701Z,50.5
2017-08-04T10:45:39.707Z,50.38
2017-08-04T10:46:39.735Z,50.29
2017-08-04T10:47:39.738Z,52.22
2017-08-04T10:48:39.736Z,54.09
2017-08-04T10:49:39.723Z,52.83
2017-08-04T10:50:39.403Z,48.85
2017-08-04T10:51:39.732Z,51.76
2017-08-04T10:52:39.735Z,50.41
2017-08-04T10:53:39.738Z,49.82
2017-08-04T10:54:39.743Z,50.99
2017-08-04T10:55:39.429Z,51.86
2017-08-04T10:56:39.753Z,52.15
2017-08-04T10:57:39.756Z,52.93
2017-08-04T10:58:39.767Z,53.49
2017-08-04T10:59:39.765Z,50.19
2017-08-04T11:00:39.783Z,51.93
2017-08-04T11:01:39.770Z,51.42
2017-08-04T11:02:39.796Z,52.49
2017-08-04T11:03:39.459Z,52.58
2017-08-04T11:04:39.784Z,52.78
2017-08-04T11:05:39.790Z,53.85
2017-08-04T11:06:39.791Z,53.26
2017-08-04T11:07:39.475Z,53.17
2017-08-04T11:08:39.797Z,52.78
2017-08-04T11:09:39.803Z,53.39
2017-08-04T11:10:39.810Z,53.97
2017-08-04T11:11:39.830Z,53.97
2017-08-04T11:12:39.814Z,54.55
2017-08-04T11:13:39.817Z,53.99
2017-08-04T11:14:39.822Z,54.58
2017-08-04T11:15:39.510Z,55.35
2017-08-04T11:16:39.829Z,53.99
2017-08-04T11:17:39.834Z,52.25
2017-08-04T11:18:39.838Z,52.44
2017-08-04T11:19:39.842Z,52.54
2017-08-04T11:20:39.846Z,52.64
2017-08-04T11:21:39.547Z,52.06
2017-08-04T11:22:39.859Z,52.54
2017-08-04T11:23:39.536Z,53.61
2017-08-04T11:24:39.881Z,56.05
2017-08-04T11:25:39.872Z,56.03
2017-08-04T11:26:39.549Z,53.83
2017-08-04T11:27:39.554Z,52.76
2017-08-04T11:28:39.882Z,54.02
2017-08-04T11:29:39.566Z,52.66
2017-08-04T11:30:39.888Z,52.28
2017-08-04T11:31:39.576Z,51.21
2017-08-04T11:32:39.900Z,50.72
2017-08-04T11:33:39.581Z,49.17
2017-08-04T11:34:39.907Z,50.24
2017-08-04T11:35:39.909Z,50.24
2017-08-04T11:36:39.595Z,49.46
2017-08-04T11:37:39.919Z,51.89
2017-08-04T11:38:39.929Z,51.59
2017-08-04T11:39:39.928Z,51.79
2017-08-04T11:40:39.937Z,51.79
2017-08-04T11:41:39.937Z,50.72
2017-08-04T11:42:39.943Z,51.47
2017-08-04T11:43:39.962Z,51.57
2017-08-04T11:44:39.951Z,51.64
2017-08-04T11:45:39.955Z,52.61
2017-08-04T11:46:39.637Z,53.87
2017-08-04T11:47:39.972Z,53.55
2017-08-04T11:48:39.976Z,54.43
2017-08-04T11:49:39.968Z,53.55
2017-08-04T11:50:39.974Z,54.43
2017-08-04T11:51:39.975Z,53.85
2017-08-04T11:52:39.985Z,54.81
2017-08-04T11:53:39.983Z,55.4
2017-08-04T11:54:40.035Z,52
2017-08-04T11:55:39.684Z,52.29
2017-08-04T11:56:39.691Z,49.75
2017-08-04T11:57:40.000Z,49.75
2017-08-04T11:58:40.322Z,49.46
2017-08-04T11:59:40.006Z,49.95
2017-08-04T12:00:40.024Z,49.85
2017-08-04T12:01:40.017Z,51.37
2017-08-04T12:02:40.017Z,51.37
2017-08-04T12:03:40.023Z,53.59
2017-08-04T12:04:40.027Z,54.27
2017-08-04T12:05:40.032Z,55.15
2017-08-04T12:06:40.032Z,55.05
2017-08-04T12:07:39.721Z,53.69
2017-08-04T12:08:39.737Z,53.31
2017-08-04T12:09:40.043Z,52.92
2017-08-04T12:10:39.724Z,52.85
2017-08-04T12:11:40.047Z,53.91
2017-08-04T12:12:40.053Z,53.91
2017-08-04T12:13:40.053Z,53.63
2017-08-04T12:14:40.059Z,53.53
2017-08-04T12:15:40.062Z,55.46
2017-08-04T12:16:40.065Z,53.94
2017-08-04T12:17:40.087Z,54.62
2017-08-04T12:18:39.750Z,55.78
2017-08-04T12:19:40.079Z,53.75
2017-08-04T12:20:40.079Z,53.39
2017-08-04T12:21:40.085Z,52.22
2017-08-04T12:22:40.089Z,52.42
2017-08-04T12:23:40.092Z,53.58
2017-08-04T12:24:39.771Z,51.64
2017-08-04T12:25:40.100Z,51.84
2017-08-04T12:26:40.101Z,52.61
2017-08-04T12:27:40.109Z,52.71
2017-08-04T12:28:39.786Z,51.84
2017-08-04T12:29:40.115Z,54.43
2017-08-04T12:30:40.130Z,53.75
2017-08-04T12:31:40.121Z,54.62
2017-08-04T12:32:40.121Z,53.17
2017-08-04T12:33:40.124Z,53.45
2017-08-04T12:34:40.128Z,53.94
2017-08-04T12:35:40.132Z,55.81
2017-08-04T12:36:40.136Z,51.74
2017-08-04T12:37:39.904Z,52.03
2017-08-04T12:38:40.143Z,52.03
2017-08-04T12:39:40.150Z,50.67
2017-08-04T12:40:39.833Z,51.18
2017-08-04T12:41:39.835Z,52.15
2017-08-04T12:42:40.157Z,51.67
2017-08-04T12:43:39.848Z,50.79
2017-08-04T12:44:39.844Z,51.54
2017-08-04T12:45:40.170Z,53.49
2017-08-04T12:46:40.178Z,51.72
2017-08-04T12:47:40.176Z,51.72
2017-08-04T12:48:40.180Z,51.52
2017-08-04T12:49:40.187Z,49.19
2017-08-04T12:50:40.189Z,51.5
2017-08-04T12:51:40.191Z,52.08
2017-08-04T12:52:40.195Z,52.85
2017-08-04T12:53:40.198Z,51.59
2017-08-04T12:54:40.200Z,51.78